Time;durP1;ratioP1;P1;durP2;ratioP2;P2;SDS_P1;SDS_P2;PMS_P1;PMS_P2;Temp;Humidity;BMP_temperature;BMP_pressure;BME280_temperature;BME280_humidity;BME280_pressure;Samples;Min_cycle;Max_cycle;Signal;HPM_P1;HPM_P2
2022/05/19 00:00:36;;;;;;;7.97;4.18;;;;;;;12.74;100.00;102239.75;4881091;29;20134;-74
2022/05/19 00:03:22;;;;;;;7.82;4.25;;;;;;;12.59;100.00;102239.81;4881046;29;20025;-74
2022/05/19 00:06:10;;;;;;;10.80;4.45;;;;;;;12.21;100.00;102244.19;4880580;29;20454;-74
2022/05/19 00:08:55;;;;;;;5.85;4.25;;;;;;;12.70;100.00;102245.91;4880335;29;20033;-74
2022/05/19 00:11:42;;;;;;;7.82;4.47;;;;;;;12.04;100.00;102253.84;4881035;29;20044;-74
2022/05/19 00:14:28;;;;;;;7.15;4.50;;;;;;;12.00;100.00;102256.44;4880797;29;20036;-74
2022/05/19 00:17:14;;;;;;;9.35;4.53;;;;;;;11.94;100.00;102256.44;4842010;29;1144252;-73
2022/05/19 00:20:00;;;;;;;7.35;4.50;;;;;;;12.16;100.00;102250.31;4881223;29;20355;-73
2022/05/19 00:22:46;;;;;;;7.38;4.50;;;;;;;12.19;100.00;102250.34;4881737;29;20367;-74
2022/05/19 00:25:32;;;;;;;7.75;4.80;;;;;;;12.41;100.00;102257.31;4880985;29;20036;-75
2022/05/19 00:28:18;;;;;;;9.20;4.43;;;;;;;12.56;100.00;102252.06;4881511;29;20032;-74
2022/05/19 00:31:03;;;;;;;8.68;4.68;;;;;;;12.64;100.00;102256.44;4880863;29;20484;-73
2022/05/19 00:33:49;;;;;;;9.25;5.05;;;;;;;12.78;100.00;102245.91;4881403;29;20088;-73
2022/05/19 00:36:36;;;;;;;7.38;4.18;;;;;;;12.81;100.00;102244.13;4881112;29;20028;-74
2022/05/19 00:39:21;;;;;;;9.13;4.93;;;;;;;12.63;100.00;102248.56;4868282;29;20028;-73
2022/05/19 00:45:22;;;;;;;12.02;4.78;;;;;;;12.91;100.00;102250.25;4881130;29;20450;-74
2022/05/19 00:48:17;;;;;;;8.18;4.90;;;;;;;11.86;100.00;102261.66;4880858;29;20041;-74
2022/05/19 00:51:07;;;;;;;8.23;4.45;;;;;;;12.27;100.00;102262.59;4880591;29;20425;-74
2022/05/19 00:53:56;;;;;;;6.45;4.53;;;;;;;12.17;100.00;102255.59;4881158;29;20076;-74
2022/05/19 00:56:50;;;;;;;10.18;4.82;;;;;;;12.14;100.00;102266.09;4880405;29;20035;-73
2022/05/19 00:59:42;;;;;;;9.90;4.90;;;;;;;12.44;100.00;102266.09;4880703;29;20040;-74
2022/05/19 01:02:38;;;;;;;7.80;5.05;;;;;;;12.82;100.00;102253.75;4880497;29;20454;-74
2022/05/19 01:05:35;;;;;;;9.32;4.93;;;;;;;12.04;100.00;102256.47;4880603;29;20029;-74
2022/05/19 01:08:27;;;;;;;7.60;5.07;;;;;;;11.85;100.00;102265.19;4868004;29;20457;-73
2022/05/19 01:11:15;;;;;;;10.75;4.78;;;;;;;12.44;100.00;102265.22;4868432;29;20084;-73
2022/05/19 01:14:02;;;;;;;6.05;4.65;;;;;;;12.48;100.00;102273.13;4880893;29;20043;-73
2022/05/19 01:16:49;;;;;;;10.93;5.28;;;;;;;12.65;100.00;102268.72;4880454;29;20092;-73
2022/05/19 01:19:39;;;;;;;7.85;5.15;;;;;;;12.20;100.00;102276.63;4867845;29;20029;-74
2022/05/19 01:22:55;;;;;;;9.02;4.82;;;;;;;12.54;100.00;102274.88;4868044;29;20438;-75
2022/05/19 01:25:55;;;;;;;10.07;4.80;;;;;;;12.25;100.00;102285.38;4867916;29;20069;-74
2022/05/19 01:28:44;;;;;;;9.27;5.00;;;;;;;12.57;100.00;102286.25;4880403;29;20040;-74
2022/05/19 01:32:20;;;;;;;7.85;4.50;;;;;;;11.99;100.00;102299.34;4880504;29;20466;-74
2022/05/19 01:35:07;;;;;;;8.65;4.60;;;;;;;12.06;100.00;102295.88;4806885;29;20042;-73
2022/05/19 01:37:53;;;;;;;13.68;5.47;;;;;;;11.77;100.00;102293.16;4806066;29;20099;-73
2022/05/19 01:40:58;;;;;;;12.23;5.75;;;;;;;11.77;100.00;102303.66;4879025;29;20462;-73
2022/05/19 01:43:58;;;;;;;11.27;5.20;;;;;;;11.97;100.00;102294.09;4880357;29;20037;-73
2022/05/19 01:46:47;;;;;;;9.43;5.10;;;;;;;11.68;100.00;102297.50;4880268;29;20579;-74
2022/05/19 01:49:32;;;;;;;10.93;5.72;;;;;;;11.37;100.00;102293.88;4880087;29;20033;-73
2022/05/19 01:53:00;;;;;;;11.07;6.05;;;;;;;11.65;100.00;102300.16;4880292;29;20088;-74
2022/05/19 01:56:09;;;;;;;9.63;5.47;;;;;;;12.04;100.00;102306.38;4880340;29;20064;-73
2022/05/19 01:59:07;;;;;;;12.02;5.45;;;;;;;12.16;100.00;102311.66;4881252;29;20324;-73
2022/05/19 02:02:24;;;;;;;12.55;5.45;;;;;;;11.50;100.00;102303.56;4881878;29;20029;-73
2022/05/19 02:05:30;;;;;;;9.23;6.35;;;;;;;11.79;100.00;102312.44;4859589;29;20033;-74
2022/05/19 02:08:22;;;;;;;8.77;5.18;;;;;;;11.62;100.00;102316.75;4879983;29;20488;-74
2022/05/19 02:11:13;;;;;;;8.70;5.57;;;;;;;11.94;100.00;102311.59;4883968;29;20033;-74
2022/05/19 02:14:04;;;;;;;9.02;4.97;;;;;;;11.78;100.00;102313.28;4870561;29;20028;-73
2022/05/19 02:16:51;;;;;;;11.93;6.47;;;;;;;12.08;100.00;102312.50;4883321;29;20043;-74
2022/05/19 02:19:40;;;;;;;7.60;5.18;;;;;;;11.29;100.00;102315.72;4870741;29;20471;-73
2022/05/19 02:22:37;;;;;;;8.63;5.18;;;;;;;11.18;100.00;102322.63;4883608;29;20361;-73
2022/05/19 02:25:27;;;;;;;10.60;5.40;;;;;;;11.44;100.00;102327.16;4883299;29;20029;-75
2022/05/19 02:28:28;;;;;;;10.68;5.03;;;;;;;11.32;100.00;102328.81;4870916;29;20033;-73
2022/05/19 02:31:15;;;;;;;9.73;5.60;;;;;;;11.45;100.00;102331.53;4882955;29;20060;-74
2022/05/19 02:34:01;;;;;;;7.20;5.18;;;;;;;11.64;100.00;102330.78;4883110;29;20037;-74
2022/05/19 02:36:47;;;;;;;8.73;5.75;;;;;;;11.84;100.00;102338.69;4870498;29;20024;-74
2022/05/19 02:39:32;;;;;;;12.70;6.20;;;;;;;11.85;100.00;102328.19;4870238;29;20036;-74
2022/05/19 02:42:18;;;;;;;10.20;5.65;;;;;;;12.00;100.00;102328.25;4883380;29;20036;-74
2022/05/19 02:45:04;;;;;;;11.13;5.65;;;;;;;12.27;100.00;102332.69;4882616;29;20374;-74
2022/05/19 02:47:51;;;;;;;9.70;5.50;;;;;;;11.79;100.00;102322.06;4883211;29;20079;-73
2022/05/19 02:50:37;;;;;;;11.48;5.45;;;;;;;11.86;100.00;102323.84;4883039;29;20039;-74
2022/05/19 02:53:22;;;;;;;12.13;5.60;;;;;;;11.87;100.00;102329.09;4883548;29;20029;-74
2022/05/19 02:56:08;;;;;;;8.40;5.45;;;;;;;12.17;100.00;102330.94;4882418;29;20057;-74
2022/05/19 02:58:54;;;;;;;7.82;5.30;;;;;;;11.93;100.00;102334.34;4883158;29;20108;-74
2022/05/19 03:01:40;;;;;;;10.13;5.18;;;;;;;12.13;100.00;102340.53;4882538;29;20039;-74
2022/05/19 03:04:26;;;;;;;11.15;6.15;;;;;;;11.90;100.00;102344.84;4882486;29;20458;-74
2022/05/19 03:07:11;;;;;;;11.18;5.70;;;;;;;12.01;100.00;102353.66;4882595;29;20033;-74
2022/05/19 03:09:57;;;;;;;10.20;5.03;;;;;;;11.68;100.00;102347.41;4870055;29;20021;-74
2022/05/19 03:12:43;;;;;;;17.98;5.72;;;;;;;11.45;100.00;102346.41;4882554;29;20100;-74
2022/05/19 03:15:29;;;;;;;9.30;5.32;;;;;;;11.90;100.00;102349.25;4882053;29;20033;-74
2022/05/19 03:18:15;;;;;;;9.48;5.50;;;;;;;11.98;100.00;102353.63;4869382;29;20474;-74
2022/05/19 03:21:01;;;;;;;11.13;5.65;;;;;;;11.42;100.00;102344.66;4880808;29;20116;-74
2022/05/19 03:23:47;;;;;;;8.00;4.80;;;;;;;11.42;100.00;102349.00;4869697;29;20365;-73
2022/05/19 03:26:33;;;;;;;9.55;5.30;;;;;;;11.26;100.00;102348.06;4882099;29;20037;-73
2022/05/19 03:29:19;;;;;;;10.18;5.90;;;;;;;11.59;100.00;102336.84;4869920;29;20060;-74
2022/05/19 03:32:05;;;;;;;8.63;5.15;;;;;;;11.69;100.00;102339.53;4882130;29;20498;-73
2022/05/19 03:34:51;;;;;;;10.38;5.80;;;;;;;11.39;100.00;102335.88;4881763;29;20124;-73
2022/05/19 03:37:37;;;;;;;13.18;6.30;;;;;;;11.56;100.00;102339.44;4869117;29;20039;-74
2022/05/19 03:40:23;;;;;;;11.65;6.28;;;;;;;11.57;100.00;102339.44;4882012;29;20112;-73
2022/05/19 03:43:09;;;;;;;14.18;6.30;;;;;;;11.28;100.00;102348.94;4869228;29;20071;-74
2022/05/19 03:45:55;;;;;;;9.80;6.03;;;;;;;11.49;100.00;102346.41;4881853;29;20048;-74
2022/05/19 03:48:41;;;;;;;8.05;5.93;;;;;;;11.53;100.00;102342.94;4881814;29;20075;-73
2022/05/19 03:51:30;;;;;;;13.15;6.20;;;;;;;12.03;100.00;102351.91;4868943;29;20104;-73
2022/05/19 03:54:16;;;;;;;10.30;5.65;;;;;;;11.70;100.00;102351.78;4881531;29;20041;-74
2022/05/19 03:57:02;;;;;;;15.07;6.00;;;;;;;11.85;100.00;102345.72;4881432;29;20036;-74
2022/05/19 03:59:49;;;;;;;12.45;6.03;;;;;;;11.75;100.00;102355.31;4881670;29;20068;-74
2022/05/19 04:02:35;;;;;;;8.23;5.22;;;;;;;11.99;100.00;102344.91;4868776;29;20099;-74
2022/05/19 04:05:21;;;;;;;8.57;5.57;;;;;;;12.14;100.00;102357.19;4869062;29;20033;-74
2022/05/19 04:08:07;;;;;;;9.93;5.80;;;;;;;11.87;100.00;102357.09;4868247;29;20033;-74
2022/05/19 04:10:53;;;;;;;11.98;6.22;;;;;;;12.00;100.00;102357.16;4868933;29;20464;-74
2022/05/19 04:13:38;;;;;;;10.23;5.95;;;;;;;12.09;100.00;102356.31;4881390;29;20033;-73
2022/05/19 04:16:25;;;;;;;12.50;6.25;;;;;;;12.46;100.00;102366.88;4881253;29;20074;-74
2022/05/19 04:19:10;;;;;;;11.20;5.85;;;;;;;12.29;100.00;102363.34;4881618;29;20116;-74
2022/05/19 04:21:57;;;;;;;11.50;5.55;;;;;;;12.86;100.00;102365.13;4881448;29;20527;-74
2022/05/19 04:24:43;;;;;;;10.98;5.80;;;;;;;12.37;100.00;102364.22;4881157;29;20475;-74
2022/05/19 04:27:29;;;;;;;8.55;6.38;;;;;;;12.56;100.00;102363.38;4880843;29;20040;-74
2022/05/19 04:30:15;;;;;;;12.77;6.15;;;;;;;12.91;100.00;102358.97;4881287;29;20339;-75
2022/05/19 04:33:02;;;;;;;11.48;5.90;;;;;;;12.79;100.00;102366.00;4867924;29;20029;-73
2022/05/19 04:35:47;;;;;;;6.50;5.20;;;;;;;13.20;100.00;102359.88;4880986;29;20037;-74
2022/05/19 04:38:34;;;;;;;8.52;5.78;;;;;;;13.21;100.00;102364.25;4868183;29;20453;-73
2022/05/19 04:41:19;;;;;;;10.23;5.68;;;;;;;12.88;100.00;102361.63;4867720;29;20047;-74
2022/05/19 04:44:05;;;;;;;8.20;5.47;;;;;;;12.75;100.00;102367.78;4880639;29;20028;-74
2022/05/19 04:46:51;;;;;;;11.50;5.70;;;;;;;12.97;100.00;102361.66;4868541;29;20033;-74
2022/05/19 04:49:37;;;;;;;10.32;5.65;;;;;;;13.22;100.00;102359.88;4880472;29;20051;-74
2022/05/19 04:52:23;;;;;;;10.05;5.20;;;;;;;13.17;100.00;102362.50;4880909;29;20100;-74
2022/05/19 04:55:09;;;;;;;10.10;6.30;;;;;;;13.18;100.00;102368.66;4867992;29;20029;-74
2022/05/19 04:57:55;;;;;;;8.45;5.88;;;;;;;13.30;100.00;102366.00;4880699;29;20036;-73
2022/05/19 05:00:41;;;;;;;10.02;5.97;;;;;;;13.29;100.00;102365.09;4868084;29;20052;-74
2022/05/19 05:03:27;;;;;;;10.75;5.88;;;;;;;13.48;100.00;102364.19;4867684;29;20382;-74
2022/05/19 05:06:13;;;;;;;11.00;5.95;;;;;;;13.43;100.00;102363.28;4880420;29;20096;-74
2022/05/19 05:08:58;;;;;;;7.75;5.88;;;;;;;13.29;100.00;102367.72;4867565;29;20104;-74
2022/05/19 05:11:44;;;;;;;9.63;6.28;;;;;;;13.39;100.00;102371.22;4880388;29;20107;-74
2022/05/19 05:14:30;;;;;;;10.70;6.10;;;;;;;13.47;100.00;102367.66;4880093;29;20041;-74
2022/05/19 05:17:16;;;;;;;10.25;6.85;;;;;;;13.62;100.00;102365.00;4880184;29;20355;-74
2022/05/19 05:20:04;;;;;;;10.07;6.57;;;;;;;13.67;100.00;102364.97;4880173;29;20036;-73
2022/05/19 05:22:49;;;;;;;9.68;6.10;;;;;;;13.95;100.00;102361.34;4867908;29;20104;-74
2022/05/19 05:25:35;;;;;;;12.13;6.72;;;;;;;13.63;100.00;102364.09;4880418;29;20153;-73
2022/05/19 05:28:21;;;;;;;10.40;6.47;;;;;;;13.77;100.00;102369.31;4880371;29;20481;-74
2022/05/19 05:31:07;;;;;;;12.18;6.90;;;;;;;13.76;100.00;102362.31;4880277;29;20048;-73
2022/05/19 05:33:53;;;;;;;11.23;7.20;;;;;;;13.67;100.00;102370.25;4867850;29;20025;-74
2022/05/19 05:36:39;;;;;;;8.48;6.32;;;;;;;14.01;100.00;102369.19;4880113;29;20029;-75
2022/05/19 05:39:25;;;;;;;10.00;6.93;;;;;;;13.88;100.00;102371.03;4880561;29;20025;-75
2022/05/19 05:42:10;;;;;;;9.27;5.90;;;;;;;14.08;100.00;102366.53;4880142;29;20470;-74
2022/05/19 05:44:56;;;;;;;10.15;6.60;;;;;;;14.11;100.00;102369.13;4882238;29;20033;-74
2022/05/19 05:47:42;;;;;;;9.93;6.10;;;;;;;14.34;100.00;102371.66;4871778;29;20029;-74
2022/05/19 05:50:28;;;;;;;9.20;5.65;;;;;;;14.05;100.00;102366.56;4883645;29;20400;-75
2022/05/19 05:53:14;;;;;;;8.23;5.80;;;;;;;14.35;100.00;102370.81;4884168;29;20037;-74
2022/05/19 05:56:00;;;;;;;7.82;6.30;;;;;;;14.24;100.00;102365.56;4871463;29;20037;-73
2022/05/19 05:58:47;;;;;;;11.73;5.93;;;;;;;14.35;100.00;102368.16;4884870;29;20111;-73
2022/05/19 06:01:33;;;;;;;9.35;5.88;;;;;;;13.69;100.00;102366.72;4883491;29;20025;-74
2022/05/19 06:04:19;;;;;;;14.95;6.60;;;;;;;14.60;100.00;102378.50;4883840;29;20036;-74
2022/05/19 06:07:05;;;;;;;10.10;6.88;;;;;;;14.79;100.00;102366.91;4871129;29;20119;-74
2022/05/19 06:09:52;;;;;;;9.20;6.78;;;;;;;14.81;100.00;102377.47;4883591;29;20430;-73
2022/05/19 06:12:40;;;;;;;10.70;6.40;;;;;;;14.69;100.00;102375.81;4873119;29;20124;-73
2022/05/19 06:15:26;;;;;;;11.02;6.63;;;;;;;14.84;100.00;102386.22;4875391;29;20029;-72
2022/05/19 06:18:12;;;;;;;8.43;6.35;;;;;;;14.93;100.00;102385.28;4874396;29;20056;-75
2022/05/19 06:20:58;;;;;;;9.27;6.30;;;;;;;15.08;100.00;102387.78;4877302;29;20032;-76
2022/05/19 06:23:43;;;;;;;10.48;6.65;;;;;;;14.92;100.00;102385.28;4875652;29;20485;-75
2022/05/19 06:26:32;;;;;;;9.25;6.30;;;;;;;14.98;100.00;102377.34;4875976;29;20025;-74
2022/05/19 06:29:19;;;;;;;16.02;6.70;;;;;;;15.19;100.00;102379.75;4873917;29;20041;-74
2022/05/19 06:32:09;;;;;;;9.90;6.50;;;;;;;15.47;100.00;102379.47;4862319;29;20024;-74
2022/05/19 06:34:55;;;;;;;7.38;5.72;;;;;;;15.50;100.00;102378.56;4861161;29;20431;-74
2022/05/19 06:37:41;;;;;;;10.45;6.10;;;;;;;15.55;100.00;102376.75;4872529;29;20068;-74
2022/05/19 06:40:28;;;;;;;10.18;6.20;;;;;;;15.92;100.00;102384.22;4875729;29;20482;-74
2022/05/19 06:43:14;;;;;;;11.05;6.20;;;;;;;15.90;100.00;102382.47;4873980;29;20101;-74
2022/05/19 06:46:00;;;;;;;7.40;5.97;;;;;;;15.92;100.00;102380.69;4875247;29;20033;-73
2022/05/19 06:48:46;;;;;;;9.70;6.85;;;;;;;15.72;100.00;102388.00;4873253;29;20037;-74
2022/05/19 06:51:32;;;;;;;10.50;6.90;;;;;;;16.04;100.00;102385.81;4873051;29;20028;-73
2022/05/19 06:54:20;;;;;;;8.55;6.20;;;;;;;16.07;100.00;102380.50;4875677;29;20151;-73
2022/05/19 06:57:06;;;;;;;8.93;6.68;;;;;;;16.26;100.00;102384.63;4874401;29;20469;-73
2022/05/19 06:59:52;;;;;;;9.35;7.10;;;;;;;16.43;100.00;102383.53;4874931;29;20374;-74
2022/05/19 07:02:45;;;;;;;8.68;6.22;;;;;;;16.62;100.00;102379.69;4872143;29;20033;-74
2022/05/19 07:05:37;;;;;;;9.07;6.50;;;;;;;16.97;100.00;102384.41;4874292;29;20036;-73
2022/05/19 07:08:23;;;;;;;12.02;6.68;;;;;;;16.71;100.00;102383.94;4859966;29;20044;-74
2022/05/19 07:11:30;;;;;;;7.82;6.30;;;;;;;16.61;100.00;102385.91;4874679;29;20036;-74
2022/05/19 07:14:15;;;;;;;9.02;7.20;;;;;;;16.67;100.00;102395.47;4873310;29;20039;-74
2022/05/19 07:17:01;;;;;;;7.72;5.85;;;;;;;16.95;100.00;102397.66;4862035;29;20053;-74
2022/05/19 07:22:52;;;;;;;8.27;6.70;;;;;;;17.22;100.00;102398.97;4874626;29;20037;-74
2022/05/19 07:25:38;;;;;;;11.90;6.47;;;;;;;17.27;100.00;102392.69;4873475;29;20033;-74
2022/05/19 07:28:25;;;;;;;9.32;6.85;;;;;;;17.39;100.00;102403.06;4873171;29;20045;-74
2022/05/19 07:31:11;;;;;;;9.35;5.68;;;;;;;17.45;100.00;102404.75;4874494;29;20573;-74
2022/05/19 07:33:57;;;;;;;10.27;6.65;;;;;;;17.91;100.00;102397.63;4874614;29;20029;-76
2022/05/19 07:36:43;;;;;;;7.43;5.63;;;;;;;17.75;100.00;102404.13;4874108;29;20098;-74
2022/05/19 07:39:29;;;;;;;9.05;5.57;;;;;;;18.24;100.00;102402.19;4872271;29;20370;-73
2022/05/19 07:42:17;;;;;;;10.07;6.28;;;;;;;18.42;100.00;102402.72;4873203;29;20167;-73
2022/05/19 07:45:05;;;;;;;11.07;6.75;;;;;;;18.22;100.00;102401.38;4874172;29;20036;-74
2022/05/19 07:47:54;;;;;;;7.63;6.32;;;;;;;18.63;100.00;102403.97;4859746;29;20419;-74
2022/05/19 07:50:40;;;;;;;11.02;6.50;;;;;;;18.88;100.00;102405.13;4873428;29;20073;-72
2022/05/19 07:53:26;;;;;;;10.20;6.53;;;;;;;19.04;100.00;102401.16;4874762;29;20036;-74
2022/05/19 07:56:12;;;;;;;9.00;6.53;;;;;;;19.08;100.00;102406.38;4872324;29;20041;-75
2022/05/19 07:58:58;;;;;;;6.70;5.93;;;;;;;19.31;100.00;102399.59;4872140;29;20036;-74
2022/05/19 08:01:45;;;;;;;9.15;6.07;;;;;;;19.39;100.00;102395.84;4872852;29;20040;-74
2022/05/19 08:04:31;;;;;;;9.40;6.57;;;;;;;18.96;100.00;102396.06;4861531;29;20446;-73
2022/05/19 08:07:17;;;;;;;8.88;6.03;;;;;;;19.12;100.00;102393.88;4873264;29;20401;-74
2022/05/19 08:10:21;;;;;;;9.23;6.50;;;;;;;19.33;100.00;102388.00;4862460;29;20366;-74
2022/05/19 08:16:11;;;;;;;9.43;6.18;;;;;;;20.37;100.00;102400.97;4875679;29;20462;-75
2022/05/19 08:18:57;;;;;;;10.23;5.93;;;;;;;20.37;100.00;102401.81;4874123;29;20079;-74
2022/05/19 08:21:44;;;;;;;5.28;4.55;;;;;;;20.63;100.00;102396.53;4862719;29;20045;-74
2022/05/19 08:24:30;;;;;;;6.35;5.22;;;;;;;19.99;100.00;102388.78;4875541;29;20056;-75
2022/05/19 08:27:18;;;;;;;6.07;5.25;;;;;;;20.82;100.00;102394.16;4873144;29;20056;-76
2022/05/19 08:30:04;;;;;;;9.70;5.32;;;;;;;21.33;100.00;102379.94;4874758;29;20037;-72
2022/05/19 08:32:50;;;;;;;5.65;4.50;;;;;;;21.17;100.00;102386.72;4875399;29;20521;-76
2022/05/19 08:35:36;;;;;;;6.78;4.50;;;;;;;21.58;100.00;102375.44;4875056;29;20446;-76
2022/05/19 08:38:22;;;;;;;5.60;3.78;;;;;;;21.68;94.94;102379.53;4873819;29;20122;-75
2022/05/19 08:41:29;;;;;;;5.05;3.63;;;;;;;21.77;88.70;102381.00;4860652;29;20435;-75
2022/05/19 08:44:52;;;;;;;8.32;4.05;;;;;;;21.37;90.83;102386.91;4877194;29;20049;-75
2022/05/19 08:47:38;;;;;;;4.57;3.40;;;;;;;20.35;89.07;102386.81;4798362;29;20392;-76
2022/05/19 08:50:28;;;;;;;4.63;3.50;;;;;;;21.28;79.59;102389.00;4861296;29;20518;-76
2022/05/19 08:53:15;;;;;;;5.43;3.70;;;;;;;20.85;77.64;102372.75;4874752;29;20045;-76
2022/05/19 08:56:31;;;;;;;7.13;4.13;;;;;;;21.24;78.68;102364.25;4862355;29;20078;-76
2022/05/19 08:59:51;;;;;;;5.40;3.70;;;;;;;21.70;78.32;102377.69;4860324;29;20048;-76
2022/05/19 09:03:14;;;;;;;8.15;4.10;;;;;;;21.58;75.73;102370.09;4859875;29;20379;-74
2022/05/19 09:06:30;;;;;;;11.98;7.43;;;;;;;22.37;71.48;102365.28;4874703;29;20300;-74
2022/05/19 09:09:47;;;;;;;4.53;3.50;;;;;;;21.79;68.92;102361.34;4859251;29;20116;-74
2022/05/19 09:12:37;;;;;;;5.00;3.00;;;;;;;22.30;68.93;102359.31;4873830;29;20096;-74
2022/05/19 09:15:23;;;;;;;5.35;3.50;;;;;;;22.10;68.29;102363.72;4875320;29;20049;-73
2022/05/19 09:18:12;;;;;;;4.95;3.38;;;;;;;21.76;71.81;102363.25;4860884;29;20457;-73
2022/05/19 09:21:00;;;;;;;3.45;3.10;;;;;;;22.24;68.05;102361.38;4878798;29;20056;-72
2022/05/19 09:23:46;;;;;;;5.13;3.08;;;;;;;21.77;69.65;102352.53;4864940;29;20127;-72
2022/05/19 09:26:42;;;;;;;7.35;2.67;;;;;;;22.35;69.94;102346.66;4865789;29;20036;-70
2022/05/19 09:29:33;;;;;;;4.65;2.40;;;;;;;22.25;62.68;102347.97;4863287;29;20035;-73
2022/05/19 09:32:33;;;;;;;4.95;2.70;;;;;;;21.78;64.82;102343.59;4864175;29;20037;-73
2022/05/19 09:35:25;;;;;;;3.72;2.63;;;;;;;22.54;63.15;102338.78;4867651;29;20076;-73
2022/05/19 09:38:32;;;;;;;6.07;2.72;;;;;;;22.56;63.29;102345.84;4875485;29;20533;-73
2022/05/19 09:41:51;;;;;;;6.65;2.45;;;;;;;22.55;60.24;102344.06;4878285;29;20033;-73
2022/05/19 09:44:45;;;;;;;5.80;2.72;;;;;;;22.05;60.65;102339.88;4874438;29;20033;-73
2022/05/19 09:47:35;;;;;;;4.20;2.58;;;;;;;21.73;63.19;102340.22;4877476;29;20041;-73
2022/05/19 09:50:27;;;;;;;2.50;2.30;;;;;;;21.48;60.09;102334.03;4878625;29;20137;-74
2022/05/19 09:53:17;;;;;;;4.32;2.33;;;;;;;21.79;60.85;102331.97;4877466;29;20383;-74
2022/05/19 09:56:07;;;;;;;6.68;2.50;;;;;;;21.92;61.06;102329.72;4878019;29;20032;-72
2022/05/19 09:59:06;;;;;;;9.38;2.63;;;;;;;21.68;59.58;102327.97;4877202;29;20449;-72
2022/05/19 10:02:08;;;;;;;5.18;2.40;;;;;;;21.11;63.01;102320.31;4865240;29;20064;-74
2022/05/19 10:04:57;;;;;;;5.28;2.55;;;;;;;21.63;61.59;102332.59;4865411;29;20025;-72
2022/05/19 10:07:51;;;;;;;6.55;3.55;;;;;;;22.19;60.60;102323.31;4876182;29;20025;-71
2022/05/19 10:10:46;;;;;;;7.13;3.42;;;;;;;21.51;61.46;102319.72;4878216;29;20029;-72
2022/05/19 10:13:56;;;;;;;3.17;2.60;;;;;;;20.95;63.95;102313.78;4877513;29;20032;-71
2022/05/19 10:16:54;;;;;;;7.25;3.10;;;;;;;21.38;68.33;102321.97;4877159;29;20107;-71
2022/05/19 10:20:06;;;;;;;4.15;2.60;;;;;;;22.03;63.66;102314.16;4886724;29;20567;-72
2022/05/19 10:23:04;;;;;;;3.83;2.70;;;;;;;22.47;61.39;102310.59;4864080;29;20036;-71
2022/05/19 10:26:15;;;;;;;6.00;2.80;;;;;;;21.80;59.65;102317.72;4864003;29;20041;-71
2022/05/19 10:32:14;;;;;;;2.65;2.45;;;;;;;21.72;56.08;102311.81;4877559;29;20051;-73
2022/05/19 10:35:09;;;;;;;3.08;2.78;;;;;;;21.48;56.20;102312.72;4877357;29;20032;-72
2022/05/19 10:38:29;;;;;;;5.35;3.05;;;;;;;22.17;58.55;102307.34;4863217;29;20493;-71
2022/05/19 10:41:34;;;;;;;5.13;2.92;;;;;;;22.00;58.85;102300.94;4877121;29;20032;-72
2022/05/19 10:44:22;;;;;;;4.03;3.00;;;;;;;21.99;59.94;102308.06;4875983;29;20037;-72
2022/05/19 10:47:46;;;;;;;3.58;2.63;;;;;;;21.68;56.86;102309.28;4876651;29;20047;-71
2022/05/19 10:50:36;;;;;;;5.00;2.72;;;;;;;22.25;56.35;102301.69;4875428;29;20035;-72
2022/05/19 10:53:35;;;;;;;3.88;2.60;;;;;;;22.25;54.28;102291.88;4877233;29;20048;-72
2022/05/19 10:56:43;;;;;;;10.45;2.78;;;;;;;22.24;55.83;102286.59;4877088;29;20376;-72
2022/05/19 10:59:45;;;;;;;4.90;3.00;;;;;;;21.90;55.78;102281.72;4862933;29;20370;-72
2022/05/19 11:03:09;;;;;;;4.63;2.70;;;;;;;22.21;57.46;102284.94;4863377;29;20083;-73
2022/05/19 11:06:04;;;;;;;7.97;3.05;;;;;;;22.34;57.33;102277.28;4877491;29;20105;-72
2022/05/19 11:09:05;;;;;;;7.13;2.97;;;;;;;22.26;58.28;102282.94;4875419;29;20459;-72
2022/05/19 11:12:15;;;;;;;7.78;2.90;;;;;;;22.12;57.54;102285.31;4863950;29;20045;-72
2022/05/19 11:15:09;;;;;;;5.75;2.70;;;;;;;22.95;53.76;102279.13;4862701;29;20037;-72
2022/05/19 11:18:10;;;;;;;5.95;2.90;;;;;;;22.75;55.00;102279.13;4874589;29;20065;-71
2022/05/19 11:20:58;;;;;;;4.57;2.90;;;;;;;22.71;56.12;102270.34;4876950;29;20048;-72
2022/05/19 11:23:54;;;;;;;3.15;2.85;;;;;;;22.62;54.98;102268.06;4875915;29;20040;-73
2022/05/19 11:26:44;;;;;;;3.90;2.70;;;;;;;23.33;53.49;102263.13;4875556;29;20088;-72
2022/05/19 11:29:36;;;;;;;9.90;2.92;;;;;;;22.52;53.01;102264.06;4875287;29;20048;-72
2022/05/19 11:32:27;;;;;;;3.05;2.63;;;;;;;22.97;54.55;102267.44;4876123;29;20037;-71
2022/05/19 11:35:20;;;;;;;3.00;2.60;;;;;;;22.18;51.71;102258.34;4874665;29;20029;-71
2022/05/19 11:38:34;;;;;;;5.82;2.97;;;;;;;22.83;55.03;102250.25;4874655;29;20037;-71
2022/05/19 11:41:30;;;;;;;6.43;2.70;;;;;;;23.67;51.25;102251.72;4862467;29;20439;-72
2022/05/19 11:44:38;;;;;;;3.72;2.42;;;;;;;23.51;47.42;102247.16;4862561;29;20109;-72
2022/05/19 11:58:03;;;;;;;4.25;2.40;;;;;;;23.48;46.80;102233.91;4874483;29;20045;-71
2022/05/19 12:01:11;;;;;;;4.75;2.80;;;;;;;22.69;47.82;102224.13;4876095;29;20137;-71
2022/05/19 12:04:12;;;;;;;4.13;2.15;;;;;;;22.11;46.59;102230.16;4875427;29;20033;-73
2022/05/19 12:07:11;;;;;;;13.38;2.95;;;;;;;21.90;50.49;102219.50;4876325;29;20130;-73
2022/05/19 12:09:59;;;;;;;7.43;2.75;;;;;;;22.50;50.97;102222.28;4875708;29;20442;-73
2022/05/19 12:12:54;;;;;;;5.18;2.58;;;;;;;22.40;51.39;102215.59;4875509;29;20498;-73
2022/05/19 12:15:51;;;;;;;7.82;2.63;;;;;;;23.36;51.41;102217.50;4875281;29;20060;-71
2022/05/19 12:19:01;;;;;;;6.90;2.63;;;;;;;22.89;48.60;102215.22;4874346;29;20128;-74
2022/05/19 12:21:47;;;;;;;4.60;3.10;;;;;;;23.29;49.15;102207.16;4874685;29;20482;-71
2022/05/19 12:24:36;;;;;;;6.38;2.88;;;;;;;23.66;48.72;102211.66;4874790;29;20033;-73
2022/05/19 12:27:29;;;;;;;5.65;2.88;;;;;;;23.34;48.57;102211.34;4874232;29;20041;-73
2022/05/19 12:33:59;;;;;;;3.88;2.38;;;;;;;23.51;49.09;102199.00;4875326;29;20036;-72
2022/05/19 12:36:52;;;;;;;3.22;2.50;;;;;;;24.01;49.22;102192.06;4874937;29;20077;-72
2022/05/19 12:39:49;;;;;;;3.45;2.33;;;;;;;23.21;46.01;102198.63;4874873;29;20040;-72
2022/05/19 12:42:43;;;;;;;2.40;2.10;;;;;;;22.47;44.29;102187.72;4872718;29;20027;-72
2022/05/19 12:45:40;;;;;;;8.57;2.55;;;;;;;21.75;47.47;102183.63;4875176;29;20815;-72
2022/05/19 12:48:32;;;;;;;5.13;2.60;;;;;;;22.18;48.07;102182.72;4874743;29;20041;-72
2022/05/19 12:52:10;;;;;;;8.80;2.95;;;;;;;22.61;47.03;102179.97;4861533;29;20060;-71
2022/05/19 12:55:27;;;;;;;2.72;2.40;;;;;;;23.39;46.26;102177.22;4837515;29;20045;-74
2022/05/19 12:58:42;;;;;;;6.03;2.85;;;;;;;23.58;47.07;102179.03;4872748;29;20064;-72
2022/05/19 13:01:56;;;;;;;2.95;2.60;;;;;;;23.35;44.45;102186.34;4862185;29;20056;-73
2022/05/19 13:04:50;;;;;;;6.30;2.63;;;;;;;23.69;44.24;102174.00;4875032;29;20415;-72
2022/05/19 13:07:41;;;;;;;4.95;2.58;;;;;;;23.32;43.84;102178.44;4873579;29;20474;-72
2022/05/19 13:10:39;;;;;;;4.25;2.20;;;;;;;24.11;42.64;102161.22;4861443;29;20052;-71
2022/05/19 13:13:40;;;;;;;4.15;3.15;;;;;;;23.84;44.40;102159.88;4876484;29;20049;-70
2022/05/19 13:16:32;;;;;;;3.90;2.97;;;;;;;23.25;45.36;102160.09;4878664;29;20379;-71
2022/05/19 13:19:31;;;;;;;5.03;2.90;;;;;;;23.35;45.78;102164.94;4842219;29;20065;-71
2022/05/19 13:22:28;;;;;;;5.80;3.42;;;;;;;23.32;46.35;102166.91;4845547;29;20034;-72
2022/05/19 13:25:14;;;;;;;4.15;3.15;;;;;;;23.50;46.62;102157.13;4843766;29;20022;-72
2022/05/19 13:31:29;;;;;;;4.50;3.30;;;;;;;23.87;44.29;102141.84;4836646;29;20038;-72
2022/05/19 13:34:17;;;;;;;4.40;3.40;;;;;;;23.54;45.00;102150.69;4836281;29;20026;-71
2022/05/19 13:37:03;;;;;;;5.10;3.60;;;;;;;23.47;45.64;102142.09;4838026;29;20030;-71
2022/05/19 13:39:49;;;;;;;8.73;3.78;;;;;;;23.56;46.41;102140.75;4837556;29;20178;-73